createdAt,value
2022-10-05T00:02:59.495Z,15.32
2022-10-05T00:07:08.680Z,15.32
2022-10-05T00:11:14.206Z,15.32
2022-10-05T00:15:19.545Z,15.34
2022-10-05T00:19:27.867Z,15.33
2022-10-05T00:23:32.681Z,15.34
2022-10-05T00:27:37.580Z,15.35
2022-10-05T00:31:39.343Z,15.34
2022-10-05T00:35:41.125Z,15.36
2022-10-05T00:39:43.177Z,15.38
2022-10-05T00:44:15.419Z,15.38
2022-10-05T00:48:32.861Z,15.39
2022-10-05T00:52:55.898Z,15.39
2022-10-05T00:57:14.385Z,15.37
2022-10-05T01:01:41.075Z,15.36
2022-10-05T01:06:22.704Z,15.36
2022-10-05T01:10:40.215Z,15.35
2022-10-05T01:15:05.408Z,15.33
2022-10-05T01:19:07.029Z,15.31
2022-10-05T01:23:40.616Z,15.28
2022-10-05T01:27:57.273Z,15.26
2022-10-05T01:32:03.088Z,15.26
2022-10-05T01:36:13.693Z,15.27
2022-10-05T01:40:39.286Z,15.28
2022-10-05T01:44:58.213Z,15.28
2022-10-05T01:49:24.042Z,15.29
2022-10-05T01:53:57.924Z,15.27
2022-10-05T01:58:20.126Z,15.23
2022-10-05T02:02:24.208Z,15.19
2022-10-05T02:06:31.369Z,15.14
2022-10-05T02:10:37.087Z,15.11
2022-10-05T02:14:43.257Z,15.05
2022-10-05T02:19:00.831Z,15.00
2022-10-05T02:23:07.542Z,14.97
2022-10-05T02:27:14.876Z,14.96
2022-10-05T02:31:24.906Z,14.95
2022-10-05T02:35:27.359Z,14.94
2022-10-05T02:39:39.631Z,14.90
2022-10-05T02:43:47.403Z,14.90
2022-10-05T02:48:18.524Z,14.90
2022-10-05T02:52:26.455Z,14.90
2022-10-05T02:56:56.483Z,14.89
2022-10-05T03:01:28.117Z,14.88
2022-10-05T03:05:39.374Z,14.87
2022-10-05T03:10:01.474Z,14.86
2022-10-05T03:14:21.847Z,14.86
2022-10-05T03:18:30.885Z,14.86
2022-10-05T03:22:59.749Z,14.86
2022-10-05T03:27:17.465Z,14.86
2022-10-05T03:31:44.619Z,14.86
2022-10-05T03:36:10.663Z,14.85
2022-10-05T03:40:27.304Z,14.85
2022-10-05T03:45:14.933Z,14.84
2022-10-05T03:49:22.134Z,14.83
2022-10-05T03:53:31.239Z,14.81
2022-10-05T03:57:38.871Z,14.83
2022-10-05T04:01:51.228Z,14.81
2022-10-05T04:06:07.398Z,14.80
2022-10-05T04:10:17.647Z,14.79
2022-10-05T04:14:23.998Z,14.78
2022-10-05T04:18:32.350Z,14.79
2022-10-05T04:22:38.240Z,14.77
2022-10-05T04:26:51.120Z,14.77
2022-10-05T04:30:54.205Z,14.76
2022-10-05T04:35:15.042Z,14.78
2022-10-05T04:39:42.897Z,14.77
2022-10-05T04:43:50.874Z,14.78
2022-10-05T04:47:58.427Z,14.77
2022-10-05T04:52:23.444Z,14.76
2022-10-05T04:56:36.350Z,14.78
2022-10-05T05:00:47.217Z,14.76
2022-10-05T05:04:59.435Z,14.77
2022-10-05T05:09:16.605Z,14.76
2022-10-05T05:14:02.131Z,14.74
2022-10-05T05:18:25.564Z,14.69
2022-10-05T05:22:57.506Z,14.67
2022-10-05T05:27:14.717Z,14.67
2022-10-05T05:31:35.004Z,14.67
2022-10-05T05:36:05.275Z,14.67
2022-10-05T05:40:10.329Z,14.68
2022-10-05T05:44:12.548Z,14.68
2022-10-05T05:48:30.752Z,14.69
2022-10-05T05:52:43.099Z,14.71
2022-10-05T05:56:51.967Z,14.71
2022-10-05T06:01:01.503Z,14.71
2022-10-05T06:05:34.079Z,14.71
2022-10-05T06:09:41.437Z,14.72
2022-10-05T06:14:01.788Z,14.74
2022-10-05T06:18:14.158Z,14.75
2022-10-05T06:22:28.958Z,14.76
2022-10-05T06:26:36.663Z,14.78
2022-10-05T06:30:56.645Z,14.81
2022-10-05T06:35:31.089Z,14.85
2022-10-05T06:40:00.888Z,14.86
2022-10-05T06:44:12.271Z,14.89
2022-10-05T06:48:44.654Z,14.90
2022-10-05T06:53:12.591Z,14.93
2022-10-05T06:57:51.992Z,14.94
2022-10-05T07:02:13.927Z,14.96
2022-10-05T07:06:21.380Z,14.96
2022-10-05T07:10:40.662Z,14.95
2022-10-05T07:14:43.410Z,14.96
2022-10-05T07:18:49.948Z,14.98
2022-10-05T07:23:16.940Z,14.99
2022-10-05T07:27:30.458Z,14.99
2022-10-05T07:31:43.195Z,15.01
2022-10-05T07:36:14.422Z,15.01
2022-10-05T07:40:45.047Z,15.04
2022-10-05T07:45:07.486Z,15.09
2022-10-05T07:49:09.885Z,15.10
2022-10-05T07:53:44.284Z,15.14
2022-10-05T07:58:06.186Z,15.16
2022-10-05T08:02:44.561Z,15.17
2022-10-05T08:06:50.025Z,15.18
2022-10-05T08:10:51.998Z,15.18
2022-10-05T08:14:57.914Z,15.18
2022-10-05T08:19:10.525Z,15.18
2022-10-05T08:23:25.784Z,15.17
2022-10-05T08:28:09.955Z,15.19
2022-10-05T08:32:34.910Z,15.21
2022-10-05T08:36:44.971Z,15.22
2022-10-05T08:41:08.084Z,15.24
2022-10-05T08:45:48.818Z,15.26
2022-10-05T08:50:16.103Z,15.28
2022-10-05T08:54:43.578Z,15.32
2022-10-05T08:59:00.529Z,15.38
2022-10-05T09:03:23.632Z,15.42
2022-10-05T09:07:55.851Z,15.47
2022-10-05T09:12:35.382Z,15.52
2022-10-05T09:17:11.171Z,15.56
2022-10-05T09:21:56.598Z,15.61
2022-10-05T09:26:23.562Z,15.64
2022-10-05T09:31:04.247Z,15.66
2022-10-05T09:35:22.180Z,15.71
2022-10-05T09:39:41.064Z,15.74
2022-10-05T09:44:22.800Z,15.74
2022-10-05T09:48:42.813Z,15.75
2022-10-05T09:53:06.381Z,15.75
2022-10-05T09:57:19.616Z,15.75
2022-10-05T10:01:49.378Z,15.75
2022-10-05T10:06:18.085Z,15.74
2022-10-05T10:10:41.241Z,15.73
2022-10-05T10:14:42.846Z,15.72
2022-10-05T10:19:22.097Z,15.72
2022-10-05T10:23:32.685Z,15.73
2022-10-05T10:27:57.108Z,15.77
2022-10-05T10:31:59.085Z,15.77
2022-10-05T10:36:06.217Z,15.79
2022-10-05T10:40:20.803Z,15.76
2022-10-05T10:44:56.362Z,15.75
2022-10-05T10:49:30.200Z,15.75
2022-10-05T10:54:03.748Z,15.78
2022-10-05T10:58:40.009Z,15.75
2022-10-05T11:02:57.152Z,15.77
2022-10-05T11:07:26.205Z,15.78
2022-10-05T11:11:56.274Z,15.78
2022-10-05T11:16:53.847Z,15.79
2022-10-05T11:21:30.699Z,15.79
2022-10-05T11:25:44.478Z,15.81
2022-10-05T11:30:10.962Z,15.79
2022-10-05T11:34:18.465Z,15.77
2022-10-05T11:38:38.220Z,15.81
2022-10-05T11:43:16.406Z,15.84
2022-10-05T11:47:45.835Z,15.88
2022-10-05T11:52:13.022Z,15.92
2022-10-05T11:56:33.395Z,15.99
2022-10-05T12:00:40.468Z,16.04
2022-10-05T12:05:02.689Z,16.02
2022-10-05T12:09:18.874Z,16.03
2022-10-05T12:13:33.332Z,16.06
2022-10-05T12:17:51.352Z,16.09
2022-10-05T12:22:04.218Z,16.14
2022-10-05T12:26:16.446Z,16.18
2022-10-05T12:30:27.921Z,16.26
2022-10-05T12:35:01.863Z,16.31
2022-10-05T12:39:12.754Z,16.36
2022-10-05T12:43:57.171Z,16.36
2022-10-05T12:48:04.451Z,16.37
2022-10-05T12:52:21.329Z,16.38
2022-10-05T12:56:38.234Z,16.39
2022-10-05T13:00:50.038Z,16.39
2022-10-05T13:05:09.799Z,16.41
2022-10-05T13:09:16.882Z,16.42
2022-10-05T13:13:37.548Z,16.45
2022-10-05T13:17:43.206Z,16.51
2022-10-05T13:21:57.099Z,16.56
2022-10-05T13:26:08.029Z,16.59
2022-10-05T13:30:19.869Z,16.59
2022-10-05T13:34:37.585Z,16.62
2022-10-05T13:39:09.291Z,16.66
2022-10-05T13:43:22.398Z,16.67
2022-10-05T13:48:03.423Z,16.74
2022-10-05T13:52:08.836Z,16.77
2022-10-05T13:56:13.559Z,16.80
2022-10-05T14:00:18.795Z,16.84
2022-10-05T14:04:28.822Z,16.87
2022-10-05T14:08:34.179Z,16.86
2022-10-05T14:12:41.664Z,16.88
2022-10-05T14:17:01.012Z,16.86
2022-10-05T14:21:07.406Z,16.87
2022-10-05T14:25:09.037Z,16.89
2022-10-05T14:29:19.658Z,16.88
2022-10-05T14:33:29.908Z,16.90
2022-10-05T14:37:33.131Z,16.89
2022-10-05T14:41:37.693Z,16.87
2022-10-05T14:46:28.062Z,16.86
2022-10-05T14:50:31.814Z,16.84
2022-10-05T14:54:41.297Z,16.82
2022-10-05T14:59:08.960Z,16.80
2022-10-05T15:03:23.660Z,16.79
2022-10-05T15:07:30.870Z,16.77
2022-10-05T15:11:46.444Z,16.76
2022-10-05T15:15:57.559Z,16.76
2022-10-05T15:20:15.164Z,16.71
2022-10-05T15:24:25.353Z,16.71
2022-10-05T15:28:41.238Z,16.71
2022-10-05T15:32:51.921Z,16.69
2022-10-05T15:37:07.274Z,16.70
2022-10-05T15:41:15.127Z,16.68
2022-10-05T15:45:53.590Z,16.64
2022-10-05T15:50:04.827Z,16.63
2022-10-05T15:54:37.032Z,16.62
2022-10-05T15:58:46.958Z,16.59
2022-10-05T16:03:11.259Z,16.60
2022-10-05T16:07:38.631Z,16.58
2022-10-05T16:12:09.704Z,16.58
2022-10-05T16:16:20.978Z,16.58
2022-10-05T16:20:41.217Z,16.57
2022-10-05T16:25:07.863Z,16.56
2022-10-05T16:29:24.070Z,16.57
2022-10-05T16:33:54.565Z,16.55
2022-10-05T16:38:25.016Z,16.54
2022-10-05T16:42:47.537Z,16.53
2022-10-05T16:46:49.246Z,16.52
2022-10-05T16:50:55.246Z,16.51
2022-10-05T16:55:02.907Z,16.51
2022-10-05T16:59:36.879Z,16.51
2022-10-05T17:03:40.110Z,16.51
2022-10-05T17:07:56.888Z,16.51
2022-10-05T17:12:40.090Z,16.52
2022-10-05T17:16:54.578Z,16.49
2022-10-05T17:21:08.009Z,16.48
2022-10-05T17:25:22.428Z,16.45
2022-10-05T17:29:54.048Z,16.44
2022-10-05T17:34:17.943Z,16.43
2022-10-05T17:38:22.758Z,16.39
2022-10-05T17:42:30.593Z,16.31
2022-10-05T17:46:50.680Z,16.24
2022-10-05T17:51:11.192Z,16.20
2022-10-05T17:55:26.996Z,16.20
2022-10-05T17:59:46.774Z,16.22
2022-10-05T18:03:50.451Z,16.28
2022-10-05T18:08:15.762Z,16.35
2022-10-05T18:12:17.923Z,16.40
2022-10-05T18:16:56.850Z,16.43
2022-10-05T18:21:14.090Z,16.41
2022-10-05T18:25:43.764Z,16.33
2022-10-05T18:30:17.469Z,16.20
2022-10-05T18:34:31.346Z,16.08
2022-10-05T18:39:00.846Z,16.00
2022-10-05T18:43:38.160Z,15.90
2022-10-05T18:47:56.800Z,15.86
2022-10-05T18:52:08.359Z,15.73
2022-10-05T18:56:39.385Z,15.40
2022-10-05T19:00:56.701Z,15.06
2022-10-05T19:05:23.759Z,14.87
2022-10-05T19:10:01.839Z,14.75
2022-10-05T19:14:33.253Z,14.66
2022-10-05T19:19:00.169Z,14.61
2022-10-05T19:23:24.837Z,14.57
2022-10-05T19:27:34.010Z,14.56
2022-10-05T19:31:46.018Z,14.57
2022-10-05T19:36:02.655Z,14.55
2022-10-05T19:40:16.037Z,14.54
2022-10-05T19:44:49.869Z,14.55
2022-10-05T19:48:54.002Z,14.55
2022-10-05T19:53:08.379Z,14.55
2022-10-05T19:57:19.207Z,14.57
2022-10-05T20:01:34.084Z,14.59
2022-10-05T20:05:36.063Z,14.62
2022-10-05T20:10:17.580Z,14.65
2022-10-05T20:14:31.186Z,14.68
2022-10-05T20:18:57.259Z,14.68
2022-10-05T20:23:23.819Z,14.64
2022-10-05T20:27:57.733Z,14.43
2022-10-05T20:32:00.391Z,14.14
2022-10-05T20:36:03.795Z,13.99
2022-10-05T20:40:06.029Z,13.89
2022-10-05T20:44:07.702Z,13.78
2022-10-05T20:48:13.946Z,13.74
2022-10-05T20:52:15.912Z,13.71
2022-10-05T20:56:19.918Z,13.70
2022-10-05T21:00:21.575Z,13.73
2022-10-05T21:04:25.274Z,13.73
2022-10-05T21:08:27.283Z,13.74
2022-10-05T21:12:29.369Z,13.76
2022-10-05T21:16:31.075Z,13.76
2022-10-05T21:20:33.126Z,13.77
2022-10-05T21:24:36.770Z,13.80
2022-10-05T21:28:39.739Z,13.82
2022-10-05T21:32:44.422Z,13.82
2022-10-05T21:36:46.678Z,13.79
2022-10-05T21:40:48.355Z,13.79
2022-10-05T21:44:50.032Z,13.81
2022-10-05T21:48:51.824Z,13.84
2022-10-05T21:52:54.707Z,13.88
2022-10-05T21:56:57.812Z,13.93
2022-10-05T22:00:59.619Z,14.01
2022-10-05T22:05:01.766Z,14.09
2022-10-05T22:09:05.002Z,14.19
2022-10-05T22:13:06.877Z,14.29
2022-10-05T22:17:31.874Z,14.31
2022-10-05T22:21:38.317Z,14.35
2022-10-05T22:25:40.491Z,14.36
2022-10-05T22:29:42.634Z,14.38
2022-10-05T22:33:44.595Z,14.37
2022-10-05T22:37:46.337Z,14.36
2022-10-05T22:41:48.778Z,14.36
2022-10-05T22:45:51.054Z,14.39
2022-10-05T22:49:52.907Z,14.41
2022-10-05T22:53:54.549Z,14.41
2022-10-05T22:57:56.535Z,14.42
2022-10-05T23:01:58.616Z,14.42
2022-10-05T23:06:03.702Z,14.42
2022-10-05T23:10:06.767Z,14.41
2022-10-05T23:14:08.557Z,14.40
2022-10-05T23:18:11.451Z,14.39
2022-10-05T23:22:13.071Z,14.40
2022-10-05T23:26:16.164Z,14.38
2022-10-05T23:30:17.996Z,14.34
2022-10-05T23:34:19.794Z,14.29
2022-10-05T23:38:22.517Z,14.27
2022-10-05T23:42:24.331Z,14.26
2022-10-05T23:46:26.066Z,14.24
2022-10-05T23:50:27.867Z,14.21
2022-10-05T23:54:29.561Z,14.19
2022-10-05T23:58:31.793Z,14.13
